createdAt,value
2018-08-19T00:00:01.762Z,97354.11
2018-08-19T00:02:31.990Z,97360.55
2018-08-19T00:05:15.434Z,97355.05
2018-08-19T00:07:46.021Z,97359.40
2018-08-19T00:10:16.788Z,97361.08
2018-08-19T00:12:48.574Z,97361.16
2018-08-19T00:15:18.770Z,97363.72
2018-08-19T00:17:48.912Z,97365.47
2018-08-19T00:20:19.106Z,97362.08
2018-08-19T00:22:50.524Z,97364.75
2018-08-19T00:25:42.153Z,97362.64
2018-08-19T00:28:14.816Z,97364.92
2018-08-19T00:30:45.183Z,97364.59
2018-08-19T00:33:15.617Z,97361.59
2018-08-19T00:35:45.779Z,97359.94
2018-08-19T00:38:16.918Z,97362.94
2018-08-19T00:40:46.996Z,97356.54
2018-08-19T00:43:18.851Z,97357.36
2018-08-19T00:45:49.088Z,97363.43
2018-08-19T00:48:19.167Z,97357.42
2018-08-19T00:50:49.297Z,97363.00
2018-08-19T00:53:19.325Z,97358.28
2018-08-19T00:55:51.318Z,97356.63
2018-08-19T00:58:23.631Z,97359.77
2018-08-19T01:00:56.397Z,97361.20
2018-08-19T01:03:26.600Z,97366.41
2018-08-19T01:05:56.801Z,97363.92
2018-08-19T01:08:26.957Z,97367.44
2018-08-19T01:10:57.127Z,97369.24
2018-08-19T01:13:27.984Z,97369.70
2018-08-19T01:15:58.165Z,97375.23
2018-08-19T01:18:28.278Z,97376.58
2018-08-19T01:21:10.598Z,97374.47
2018-08-19T01:23:42.716Z,97375.36
2018-08-19T01:26:14.038Z,97378.78
2018-08-19T01:28:44.929Z,97381.35
2018-08-19T01:31:15.679Z,97380.13
2018-08-19T01:33:45.842Z,97385.66
2018-08-19T01:36:16.405Z,97382.23
2018-08-19T01:38:46.750Z,97383.09
2018-08-19T01:41:16.838Z,97385.72
2018-08-19T01:43:58.744Z,97381.87
2018-08-19T01:46:30.393Z,97383.55
2018-08-19T01:49:01.724Z,97379.30
2018-08-19T01:51:32.339Z,97381.41
2018-08-19T01:54:37.066Z,97380.61
2018-08-19T01:57:07.410Z,97382.32
2018-08-19T01:59:37.744Z,97380.20
2018-08-19T02:02:08.510Z,97386.63
2018-08-19T02:04:57.313Z,97387.46
2018-08-19T02:07:27.732Z,97384.95
2018-08-19T02:10:02.427Z,97387.55
2018-08-19T02:12:39.716Z,97384.63
2018-08-19T02:15:11.148Z,97382.08
2018-08-19T02:18:15.708Z,97382.94
2018-08-19T02:20:46.862Z,97382.53
2018-08-19T02:23:17.079Z,97379.16
2018-08-19T02:25:48.573Z,97376.16
2018-08-19T02:28:22.597Z,97384.30
2018-08-19T02:31:00.475Z,97386.47
2018-08-19T02:33:33.650Z,97379.19
2018-08-19T02:36:06.733Z,97377.50
2018-08-19T02:38:38.076Z,97372.42
2018-08-19T02:41:08.660Z,97375.84
2018-08-19T02:43:46.597Z,97375.01
2018-08-19T02:46:16.966Z,97371.59
2018-08-19T02:48:51.071Z,97374.17
2018-08-19T02:51:21.924Z,97374.32
2018-08-19T02:53:54.342Z,97375.20
2018-08-19T02:56:24.278Z,97382.17
2018-08-19T02:58:54.517Z,97370.27
2018-08-19T03:01:24.882Z,97378.83
2018-08-19T03:03:56.905Z,97375.47
2018-08-19T03:06:27.404Z,97374.67
2018-08-19T03:09:00.118Z,97370.94
2018-08-19T03:11:30.589Z,97367.19
2018-08-19T03:14:01.701Z,97367.19
2018-08-19T03:16:32.436Z,97369.77
2018-08-19T03:19:02.573Z,97369.81
2018-08-19T03:21:35.482Z,97368.98
2018-08-19T03:24:07.292Z,97368.59
2018-08-19T03:26:37.937Z,97366.92
2018-08-19T03:29:14.786Z,97366.50
2018-08-19T03:31:49.549Z,97370.35
2018-08-19T03:34:19.870Z,97368.14
2018-08-19T03:36:50.389Z,97369.86
2018-08-19T03:39:21.322Z,97368.15
2018-08-19T03:41:51.814Z,97368.98
2018-08-19T03:44:22.206Z,97373.27
2018-08-19T03:46:54.351Z,97372.37
2018-08-19T03:49:25.674Z,97368.53
2018-08-19T03:51:55.659Z,97374.52
2018-08-19T03:54:26.627Z,97371.08
2018-08-19T03:56:57.308Z,97367.68
2018-08-19T03:59:27.832Z,97374.09
2018-08-19T04:01:58.343Z,97374.09
2018-08-19T04:04:28.730Z,97374.11
2018-08-19T04:06:59.262Z,97376.72
2018-08-19T04:09:29.461Z,97391.31
2018-08-19T04:12:08.848Z,97389.20
2018-08-19T04:14:39.351Z,97394.88
2018-08-19T04:17:11.817Z,97382.19
2018-08-19T04:19:44.427Z,97392.41
2018-08-19T04:22:15.027Z,97397.14
2018-08-19T04:24:46.227Z,97396.74
2018-08-19T04:27:17.103Z,97392.91
2018-08-19T04:29:47.593Z,97392.53
2018-08-19T04:32:24.894Z,97390.81
2018-08-19T04:34:55.444Z,97396.80
2018-08-19T04:37:25.976Z,97390.83
2018-08-19T04:39:56.554Z,97395.11
2018-08-19T04:42:27.003Z,97402.33
2018-08-19T04:44:57.366Z,97405.73
2018-08-19T04:47:31.002Z,97400.16
2018-08-19T04:50:01.071Z,97401.09
2018-08-19T04:52:32.970Z,97407.06
2018-08-19T04:55:03.259Z,97417.30
2018-08-19T04:57:33.653Z,97413.03
2018-08-19T05:00:04.116Z,97410.42
2018-08-19T05:02:35.641Z,97407.46
2018-08-19T05:05:06.058Z,97404.53
2018-08-19T05:07:36.586Z,97413.11
2018-08-19T05:10:07.264Z,97411.31
2018-08-19T05:12:37.943Z,97416.39
2018-08-19T05:15:08.266Z,97407.02
2018-08-19T05:17:38.981Z,97409.56
2018-08-19T05:20:15.856Z,97410.02
2018-08-19T05:22:46.260Z,97410.37
2018-08-19T05:25:16.982Z,97416.30
2018-08-19T05:27:52.677Z,97423.06
2018-08-19T05:30:23.088Z,97419.57
2018-08-19T05:32:58.689Z,97418.53
2018-08-19T05:35:29.297Z,97413.53
2018-08-19T05:38:00.124Z,97420.78
2018-08-19T05:40:31.004Z,97415.66
2018-08-19T05:43:01.009Z,97419.94
2018-08-19T05:45:31.288Z,97419.00
2018-08-19T05:48:08.572Z,97414.68
2018-08-19T05:50:39.012Z,97419.77
2018-08-19T05:53:09.744Z,97420.56
2018-08-19T05:55:41.622Z,97418.38
2018-08-19T05:58:12.344Z,97429.85
2018-08-19T06:00:44.908Z,97431.47
2018-08-19T06:03:15.676Z,97431.36
2018-08-19T06:05:46.279Z,97421.89
2018-08-19T06:08:17.336Z,97426.47
2018-08-19T06:10:48.615Z,97429.42
2018-08-19T06:13:19.203Z,97433.20
2018-08-19T06:15:49.859Z,97429.23
2018-08-19T06:18:21.973Z,97426.58
2018-08-19T06:20:52.463Z,97440.16
2018-08-19T06:23:23.394Z,97433.20
2018-08-19T06:25:56.013Z,97436.61
2018-08-19T06:28:26.239Z,97438.70
2018-08-19T06:30:57.300Z,97436.90
2018-08-19T06:33:27.898Z,97436.32
2018-08-19T06:35:57.764Z,97434.58
2018-08-19T06:38:28.390Z,97437.03
2018-08-19T06:40:58.708Z,97437.77
2018-08-19T06:43:29.196Z,97430.34
2018-08-19T06:45:59.362Z,97428.93
2018-08-19T06:48:29.924Z,97432.27
2018-08-19T06:51:00.500Z,97432.03
2018-08-19T06:53:31.009Z,97437.05
2018-08-19T06:56:01.223Z,97441.14
2018-08-19T06:58:31.320Z,97440.93
2018-08-19T07:01:01.545Z,97433.05
2018-08-19T07:03:31.751Z,97435.45
2018-08-19T07:06:11.439Z,97430.14
2018-08-19T07:08:41.528Z,97432.45
2018-08-19T07:11:12.172Z,97427.23
2018-08-19T07:13:42.575Z,97432.97
2018-08-19T07:16:12.651Z,97424.68
2018-08-19T07:18:43.262Z,97425.77
2018-08-19T07:34:20.002Z,97428.92
2018-08-19T07:36:50.593Z,97430.45
2018-08-19T07:39:23.113Z,97432.81
2018-08-19T07:41:54.637Z,97428.72
2018-08-19T07:44:25.281Z,97431.45
2018-08-19T07:46:55.802Z,97432.12
2018-08-19T07:49:27.033Z,97431.06
2018-08-19T07:51:57.494Z,97429.14
2018-08-19T07:54:27.893Z,97425.51
2018-08-19T07:56:58.587Z,97419.61
2018-08-19T07:59:29.892Z,97427.92
2018-08-19T08:02:02.696Z,97425.56
2018-08-19T08:04:37.893Z,97422.72
2018-08-19T08:07:08.012Z,97427.14
2018-08-19T08:09:38.236Z,97427.75
2018-08-19T08:12:10.910Z,97416.83
2018-08-19T08:14:55.874Z,97432.03
2018-08-19T08:17:27.348Z,97419.70
2018-08-19T08:20:02.409Z,97423.89
2018-08-19T08:22:33.747Z,97430.46
2018-08-19T08:25:06.879Z,97426.79
2018-08-19T08:27:39.470Z,97430.00
2018-08-19T08:30:12.647Z,97431.01
2018-08-19T08:32:46.127Z,97427.14
2018-08-19T08:35:16.573Z,97432.27
2018-08-19T08:37:46.781Z,97427.77
2018-08-19T08:53:21.593Z,97417.78
2018-08-19T08:55:52.977Z,97418.19
2018-08-19T08:58:23.263Z,97409.25
2018-08-19T09:00:53.979Z,97404.48
2018-08-19T09:03:24.721Z,97397.02
2018-08-19T09:05:55.249Z,97394.14
2018-08-19T09:08:26.842Z,97390.47
2018-08-19T09:10:58.471Z,97387.42
2018-08-19T09:13:34.569Z,97385.77
2018-08-19T09:16:04.889Z,97377.81
2018-08-19T09:18:34.998Z,97379.48
2018-08-19T09:21:05.548Z,97374.36
2018-08-19T09:23:36.020Z,97379.19
2018-08-19T09:26:06.385Z,97375.05
2018-08-19T09:28:36.679Z,97372.98
2018-08-19T09:31:06.013Z,97370.92
2018-08-19T09:33:36.952Z,97370.84
2018-08-19T09:36:07.638Z,97362.27
2018-08-19T09:38:37.834Z,97366.93
2018-08-19T09:41:08.032Z,97372.22
2018-08-19T09:43:38.696Z,97363.37
2018-08-19T09:46:09.389Z,97362.34
2018-08-19T09:48:39.645Z,97362.59
2018-08-19T09:51:15.797Z,97353.64
2018-08-19T09:53:46.146Z,97356.69
2018-08-19T09:56:16.802Z,97355.83
2018-08-19T09:58:52.085Z,97349.80
2018-08-19T10:01:27.530Z,97358.11
2018-08-19T10:03:58.005Z,97350.42
2018-08-19T10:06:28.494Z,97338.55
2018-08-19T10:08:58.867Z,97340.22
2018-08-19T10:14:03.866Z,97334.67
2018-08-19T10:16:44.673Z,97333.22
2018-08-19T10:19:16.552Z,97331.14
2018-08-19T10:21:46.816Z,97328.38
2018-08-19T10:24:22.683Z,97318.45
2018-08-19T10:26:54.063Z,97322.44
2018-08-19T10:29:24.572Z,97323.05
2018-08-19T10:32:03.115Z,97320.00
2018-08-19T10:34:36.392Z,97323.08
2018-08-19T10:37:06.735Z,97319.38
2018-08-19T10:39:37.394Z,97312.20
2018-08-19T10:42:21.307Z,97314.21
2018-08-19T10:44:53.319Z,97309.16
2018-08-19T10:47:23.809Z,97306.39
2018-08-19T10:49:59.919Z,97304.39
2018-08-19T10:52:31.289Z,97308.28
2018-08-19T10:55:02.422Z,97308.83
2018-08-19T10:57:32.934Z,97311.09
2018-08-19T11:00:03.159Z,97303.80
2018-08-19T11:02:33.242Z,97300.92
2018-08-19T11:05:03.844Z,97303.39
2018-08-19T11:07:34.276Z,97293.38
2018-08-19T11:10:21.240Z,97297.02
2018-08-19T11:12:54.717Z,97297.54
2018-08-19T11:15:34.559Z,97287.13
2018-08-19T11:18:22.855Z,97280.97
2018-08-19T11:20:56.832Z,97282.45
2018-08-19T11:23:28.717Z,97280.52
2018-08-19T11:25:59.528Z,97279.84
2018-08-19T11:28:39.752Z,97280.67
2018-08-19T11:31:21.851Z,97277.67
2018-08-19T11:33:53.505Z,97275.64
2018-08-19T11:36:58.547Z,97274.88
2018-08-19T11:39:34.274Z,97276.69
2018-08-19T11:42:04.687Z,97274.65
2018-08-19T11:44:36.285Z,97260.86
2018-08-19T11:47:11.198Z,97261.77
2018-08-19T11:49:45.781Z,97258.63
2018-08-19T11:52:16.611Z,97254.52
2018-08-19T11:54:46.241Z,97257.87
2018-08-19T11:57:15.502Z,97258.54
2018-08-19T11:59:46.892Z,97257.78
2018-08-19T12:02:18.608Z,97250.71
2018-08-19T12:04:48.295Z,97250.62
2018-08-19T12:07:18.176Z,97245.30
2018-08-19T12:10:06.846Z,97243.63
2018-08-19T12:12:47.547Z,97237.11
2018-08-19T12:15:16.856Z,97237.86
2018-08-19T12:17:46.200Z,97239.43
2018-08-19T12:20:23.245Z,97233.73
2018-08-19T12:22:53.508Z,97233.96
2018-08-19T12:25:23.723Z,97223.48
2018-08-19T12:27:53.909Z,97225.14
2018-08-19T12:30:25.478Z,97222.38
2018-08-19T12:33:05.173Z,97216.56
2018-08-19T12:35:35.287Z,97210.59
2018-08-19T12:38:05.433Z,97208.72
2018-08-19T12:40:39.230Z,97212.73
2018-08-19T12:43:09.485Z,97207.98
2018-08-19T13:18:28.956Z,97176.09
2018-08-19T15:24:19.098Z,97079.92
2018-08-19T15:26:49.819Z,97074.77
2018-08-19T15:29:32.034Z,97072.13
2018-08-19T15:32:03.961Z,97067.53
2018-08-19T15:34:34.302Z,97064.42
2018-08-19T15:37:05.448Z,97062.22
2018-08-19T15:39:36.066Z,97058.31
2018-08-19T15:42:06.505Z,97057.25
2018-08-19T15:44:36.663Z,97053.66
2018-08-19T15:47:07.345Z,97051.45
2018-08-19T15:49:37.762Z,97050.84
2018-08-19T15:52:08.544Z,97048.38
2018-08-19T15:54:39.558Z,97053.03
2018-08-19T15:57:09.965Z,97055.91
2018-08-19T15:59:40.543Z,97050.27
2018-08-19T16:02:11.147Z,97057.39
2018-08-19T16:04:42.401Z,97055.67
2018-08-19T16:07:12.754Z,97052.75
2018-08-19T16:09:43.432Z,97052.45
2018-08-19T16:12:13.878Z,97051.50
2018-08-19T16:14:44.662Z,97050.59
2018-08-19T16:17:15.925Z,97049.20
2018-08-19T16:19:46.532Z,97048.08
2018-08-19T16:22:17.242Z,97043.09
2018-08-19T16:24:47.744Z,97044.20
2018-08-19T16:27:18.493Z,97044.59
2018-08-19T16:29:49.214Z,97042.87
2018-08-19T16:32:20.333Z,97043.18
2018-08-19T16:34:51.747Z,97043.77
2018-08-19T16:37:22.349Z,97040.72
2018-08-19T16:39:52.922Z,97036.58
2018-08-19T16:42:24.315Z,97041.44
2018-08-19T16:44:54.928Z,97047.16
2018-08-19T16:47:25.062Z,97052.31
2018-08-19T16:49:56.356Z,97052.76
2018-08-19T16:52:27.506Z,97050.06
2018-08-19T16:54:58.064Z,97049.94
2018-08-19T16:57:28.446Z,97049.44
2018-08-19T16:59:59.509Z,97044.98
2018-08-19T17:02:30.124Z,97046.67
2018-08-19T17:05:01.630Z,97042.34
2018-08-19T17:07:33.063Z,97036.58
2018-08-19T17:10:04.879Z,97043.67
2018-08-19T17:12:35.908Z,97038.09
2018-08-19T17:15:07.231Z,97040.85
2018-08-19T17:17:37.934Z,97036.53
2018-08-19T17:20:08.523Z,97046.56
2018-08-19T17:22:40.760Z,97046.34
2018-08-19T17:25:12.614Z,97048.73
2018-08-19T17:27:42.992Z,97050.20
2018-08-19T17:30:17.685Z,97049.84
2018-08-19T17:32:52.103Z,97047.09
2018-08-19T17:35:22.555Z,97046.03
2018-08-19T17:37:53.928Z,97050.91
2018-08-19T17:40:25.595Z,97051.27
2018-08-19T17:42:56.102Z,97048.98
2018-08-19T17:45:27.399Z,97050.61
2018-08-19T17:47:58.063Z,97052.38
2018-08-19T17:50:29.380Z,97054.75
2018-08-19T17:53:01.110Z,97057.85
2018-08-19T17:55:32.231Z,97061.53
2018-08-19T17:58:03.673Z,97055.73
2018-08-19T18:00:34.406Z,97057.80
2018-08-19T18:03:05.016Z,97061.12
2018-08-19T18:05:36.757Z,97062.98
2018-08-19T18:08:10.932Z,97068.04
2018-08-19T18:10:44.576Z,97065.54
2018-08-19T18:13:14.800Z,97065.47
2018-08-19T18:15:45.655Z,97066.30
2018-08-19T18:18:16.139Z,97070.50
2018-08-19T18:20:48.182Z,97070.83
2018-08-19T18:23:24.578Z,97077.09
2018-08-19T20:04:17.088Z,97130.64
2018-08-19T20:06:47.162Z,97132.92
2018-08-19T20:09:17.228Z,97139.91
2018-08-19T20:11:47.288Z,97137.48
2018-08-19T20:14:18.340Z,97137.67
2018-08-19T20:16:48.541Z,97139.47
2018-08-19T20:19:18.657Z,97139.69
2018-08-19T20:21:49.349Z,97132.97
2018-08-19T20:24:22.094Z,97137.86
2018-08-19T20:26:52.178Z,97140.05
2018-08-19T20:29:22.688Z,97147.05
2018-08-19T20:31:52.642Z,97139.09
2018-08-19T20:34:22.557Z,97142.31
2018-08-19T20:36:53.111Z,97136.47
2018-08-19T20:39:22.848Z,97139.05
2018-08-19T20:41:52.966Z,97146.44
2018-08-19T20:44:23.095Z,97144.36
2018-08-19T20:46:57.234Z,97147.92
2018-08-19T20:49:28.239Z,97152.30
2018-08-19T20:51:58.438Z,97155.14
2018-08-19T20:54:28.570Z,97157.52
2018-08-19T20:56:59.352Z,97164.73
2018-08-19T20:59:34.630Z,97159.88
2018-08-19T21:02:06.250Z,97169.25
2018-08-19T21:04:36.578Z,97173.06
2018-08-19T21:07:08.254Z,97165.39
2018-08-19T21:09:38.891Z,97167.30
2018-08-19T21:12:09.187Z,97173.02
2018-08-19T21:14:39.545Z,97170.99
2018-08-19T21:17:09.985Z,97168.59
2018-08-19T21:19:42.977Z,97175.64
2018-08-19T21:22:13.380Z,97175.06
2018-08-19T21:24:43.672Z,97173.66
2018-08-19T21:27:13.838Z,97175.66
2018-08-19T21:29:44.560Z,97176.69
2018-08-19T21:32:14.827Z,97182.90
2018-08-19T21:34:45.284Z,97186.47
2018-08-19T21:37:22.351Z,97180.53
2018-08-19T21:39:52.659Z,97179.73
2018-08-19T21:42:23.076Z,97184.04
2018-08-19T21:44:53.243Z,97182.38
2018-08-19T21:47:23.805Z,97185.88
2018-08-19T21:49:58.115Z,97185.88
2018-08-19T21:52:28.728Z,97185.45
2018-08-19T21:55:00.043Z,97175.23
2018-08-19T21:57:29.688Z,97180.50
2018-08-19T21:59:59.954Z,97179.31
2018-08-19T22:02:34.830Z,97178.52
2018-08-19T22:05:05.468Z,97180.30
2018-08-19T22:07:36.468Z,97176.91
2018-08-19T22:10:07.561Z,97177.40
2018-08-19T22:12:41.543Z,97178.30
2018-08-19T22:15:11.922Z,97181.81
2018-08-19T22:17:42.168Z,97180.22
2018-08-19T22:20:12.344Z,97181.69
2018-08-19T22:22:42.924Z,97179.30
2018-08-19T22:25:13.915Z,97183.77
2018-08-19T22:27:44.100Z,97183.01
2018-08-19T22:30:14.628Z,97184.84
2018-08-19T22:32:44.876Z,97184.84
2018-08-19T22:35:15.280Z,97187.48
2018-08-19T22:37:45.876Z,97193.13
2018-08-19T22:40:19.184Z,97189.36
2018-08-19T22:42:49.518Z,97186.07
2018-08-19T22:45:19.842Z,97186.55
2018-08-19T22:47:53.834Z,97181.00
2018-08-19T22:50:24.103Z,97181.87
2018-08-19T22:52:54.536Z,97181.07
2018-08-19T22:55:24.857Z,97182.84
2018-08-19T22:58:01.875Z,97182.84
2018-08-19T23:00:33.326Z,97178.69
2018-08-19T23:03:07.862Z,97181.33
2018-08-19T23:05:39.055Z,97183.09
2018-08-19T23:08:11.276Z,97176.74
2018-08-19T23:10:43.623Z,97182.48
2018-08-19T23:13:28.931Z,97181.58
2018-08-19T23:15:59.886Z,97191.28
2018-08-19T23:18:30.975Z,97189.72
2018-08-19T23:21:02.045Z,97188.20
2018-08-19T23:23:32.866Z,97189.97
2018-08-19T23:26:04.034Z,97188.34
2018-08-19T23:28:34.886Z,97186.67
2018-08-19T23:31:05.827Z,97183.28
2018-08-19T23:33:37.584Z,97187.72
2018-08-19T23:36:08.667Z,97205.91
2018-08-19T23:38:40.225Z,97179.41
2018-08-19T23:41:11.059Z,97181.17
2018-08-19T23:43:41.960Z,97181.27
2018-08-19T23:46:12.422Z,97178.74
2018-08-19T23:48:42.673Z,97174.48
2018-08-19T23:51:18.352Z,97173.67
2018-08-19T23:53:50.015Z,97174.59
2018-08-19T23:56:20.591Z,97169.90
2018-08-19T23:58:51.897Z,97170.28
